Pagrindinis puslapis
METAR-TAF:

METAR-TAF

Oro uostai :

Thule, Grenlandija

platuma: 76-32N, ilguma: 068-42W, Aukštis: 77 m

Dabartinis oras

Ataskaita buvo paskelbta 18 minutes, ne 12:56 UTC
Vėjas 12 kt iš Rytų/Pietryčių
Temperatūra -27°C
Drėgmė 83%
Slėgis 999 hPa
Matomumas 10 km arba daugiau
Giedras dangus

METAR: BGTL 191256Z AUTO 11012KT 9999 CLR M27/M29 A2951 RMK AO2 SLP986 T12691290 TSNO $

Laikas: 09:14 (13:14 UTC)

Prognozė

Ataskaita buvo paskelbta 3 valandos ir 14 minutes, ne 10:00 UTC
Prognozė galioja nuo 19 metu 10 UTC su 20 metu 16 UTC
Vėjas 9 kt iš Rytų
Matomumas 10 km arba daugiau
Giedras dangus

TAF: BGTL 191000Z 1910/2016 10009KT 9999 SKC QNH2944INS TXM20/1915Z TNM28/2010Z

Orai ataskaitas ir orų prognozės (METAR, TAF).

turimą stotys yra geltonos ir raudonos taškus žemėlapyje.

Perkelti pele per norėdami pamatyti stoties vardą.

Tada spustelėkite, norėdami matyti oro stebėjimo ir prognozės.

Norėdami pakeisti žemėlapį: spustelėkite ant žalios mygtukų su juodo kryžiaus žemyn,; žalią mygtuką su brūkšneliu, jei norite nutolinti; arba žalių rodyklių gretimoms žemėlapius.


METAR-TAF: